createdAt,value
2023-03-21T09:03:38.199Z,2.10
2023-03-21T09:06:04.847Z,2.20
2023-03-21T09:08:31.384Z,2.30
2023-03-21T09:10:57.905Z,2.33
2023-03-21T09:13:24.756Z,1.70
2023-03-21T09:15:51.285Z,2.53
2023-03-21T09:18:17.825Z,1.90
2023-03-21T09:20:45.744Z,1.73
2023-03-21T09:23:13.990Z,2.25
2023-03-21T09:25:41.699Z,2.13
2023-03-21T09:28:08.439Z,2.00
2023-03-21T09:30:36.723Z,1.90
2023-03-21T09:33:04.674Z,2.25
2023-03-21T09:35:31.390Z,1.92
2023-03-21T09:37:58.092Z,2.30
2023-03-21T09:40:30.206Z,2.20
2023-03-21T09:43:18.486Z,1.90
2023-03-21T09:46:19.569Z,1.75
2023-03-21T09:48:57.331Z,2.20
2023-03-21T09:51:28.928Z,2.40
2023-03-21T09:53:57.643Z,2.20
2023-03-21T09:56:25.006Z,2.10
2023-03-21T09:58:55.735Z,1.63
2023-03-21T10:01:26.704Z,1.90
2023-03-21T10:03:54.730Z,1.30
2023-03-21T10:06:23.690Z,2.15
2023-03-21T10:08:50.313Z,1.90
2023-03-21T10:11:24.155Z,2.83
2023-03-21T10:13:58.241Z,2.33
2023-03-21T10:16:43.210Z,1.70
2023-03-21T10:19:15.423Z,1.73
2023-03-21T10:21:59.798Z,1.55
2023-03-21T10:24:29.307Z,2.20
2023-03-21T10:26:56.488Z,1.80
2023-03-21T10:29:34.430Z,2.65
2023-03-21T10:32:01.715Z,1.55
2023-03-21T10:34:37.698Z,1.38
2023-03-21T10:37:05.806Z,2.30
2023-03-21T10:39:45.450Z,3.03
2023-03-21T10:42:24.499Z,3.42
2023-03-21T10:44:54.688Z,3.53
2023-03-21T10:47:26.467Z,1.38
2023-03-21T10:50:10.417Z,1.10
2023-03-21T10:52:44.827Z,1.90
2023-03-21T10:55:27.752Z,2.05
2023-03-21T10:58:08.880Z,1.98
2023-03-21T11:00:39.551Z,1.65
2023-03-21T11:03:06.732Z,1.70
2023-03-21T11:05:39.909Z,1.88
2023-03-21T11:08:12.143Z,1.88
2023-03-21T11:10:59.709Z,1.65
2023-03-21T11:13:33.482Z,1.30
2023-03-21T11:16:11.245Z,1.63
2023-03-21T11:18:43.695Z,1.77
2023-03-21T11:21:13.117Z,1.80
2023-03-21T11:23:49.150Z,1.35
2023-03-21T11:26:30.832Z,1.73
2023-03-21T11:28:58.100Z,1.63
2023-03-21T11:31:40.705Z,2.05
2023-03-21T11:34:09.252Z,2.33
2023-03-21T11:36:38.180Z,2.10
2023-03-21T11:39:34.465Z,1.65
2023-03-21T11:42:01.232Z,1.52
2023-03-21T11:44:31.030Z,2.17
2023-03-21T11:49:24.785Z,2.00
2023-03-21T11:52:18.140Z,1.77
2023-03-21T11:54:58.477Z,2.00
2023-03-21T11:57:32.380Z,2.20
2023-03-21T12:00:02.979Z,1.98
2023-03-21T12:02:50.475Z,1.77
2023-03-21T12:08:09.850Z,2.40
2023-03-21T12:11:01.252Z,2.13
2023-03-21T12:13:50.325Z,1.88
2023-03-21T12:16:47.243Z,2.28
2023-03-21T12:19:29.832Z,2.05
2023-03-21T12:22:25.782Z,1.60
2023-03-21T12:24:57.173Z,1.98
2023-03-21T12:27:39.251Z,2.17
2023-03-21T12:30:20.940Z,1.95
2023-03-21T12:33:08.311Z,2.20
2023-03-21T12:38:15.414Z,2.33
2023-03-21T12:40:54.010Z,1.77
2023-03-21T12:43:32.575Z,2.20
2023-03-21T12:46:03.828Z,2.10
2023-03-21T12:48:43.130Z,1.85
2023-03-21T12:51:15.487Z,2.15
2023-03-21T12:53:49.652Z,2.15
2023-03-21T12:56:22.255Z,1.73
2023-03-21T12:58:57.591Z,1.95
2023-03-21T13:01:25.437Z,1.80
2023-03-21T13:03:59.514Z,1.95
2023-03-21T13:06:28.032Z,2.00
2023-03-21T13:09:02.518Z,1.52
2023-03-21T13:11:30.736Z,1.63
2023-03-21T13:14:23.760Z,1.77
2023-03-21T13:17:10.992Z,2.20
2023-03-21T13:19:49.471Z,1.88
2023-03-21T13:22:26.462Z,1.50
2023-03-21T13:24:59.819Z,2.10
2023-03-21T13:27:31.275Z,2.10
2023-03-21T13:30:06.284Z,1.77
2023-03-21T13:32:37.479Z,2.30
2023-03-21T13:35:19.003Z,2.10
2023-03-21T13:40:34.464Z,1.98
2023-03-21T13:43:01.143Z,1.80
2023-03-21T13:45:31.926Z,1.50
2023-03-21T13:48:06.505Z,1.35
2023-03-21T13:50:51.221Z,1.27
2023-03-21T13:53:23.082Z,1.80
2023-03-21T13:56:17.447Z,1.60
2023-03-21T13:58:43.909Z,1.90
2023-03-21T14:01:31.506Z,1.40
2023-03-21T14:04:10.947Z,1.52
2023-03-21T14:06:58.574Z,1.35
2023-03-21T14:09:43.464Z,1.40
2023-03-21T14:12:19.335Z,1.42
2023-03-21T14:15:06.917Z,1.38
2023-03-21T14:17:34.938Z,1.67
2023-03-21T14:20:13.884Z,1.60
2023-03-21T14:22:40.612Z,1.50
2023-03-21T14:25:12.347Z,1.40
2023-03-21T14:27:49.408Z,1.35
2023-03-21T14:30:25.708Z,1.30
2023-03-21T14:32:59.925Z,1.30
2023-03-21T14:35:30.194Z,1.77
2023-03-21T14:38:00.899Z,1.10
2023-03-21T14:40:28.845Z,1.58
2023-03-21T14:42:55.439Z,1.30
2023-03-21T14:45:28.266Z,1.42
2023-03-21T14:48:07.167Z,1.25
2023-03-21T14:50:42.649Z,1.55
2023-03-21T14:53:19.708Z,1.40
2023-03-21T14:55:54.783Z,1.30
2023-03-21T14:58:21.344Z,1.35
2023-03-21T15:00:50.292Z,1.00
2023-03-21T15:03:22.035Z,1.40
2023-03-21T15:05:48.858Z,1.40
2023-03-21T15:08:18.458Z,1.20
2023-03-21T15:13:40.162Z,1.30
2023-03-21T15:16:08.149Z,1.60
2023-03-21T15:18:38.121Z,1.38
2023-03-21T15:21:12.768Z,1.17
2023-03-21T15:23:44.848Z,1.40
2023-03-21T15:26:20.609Z,1.40
2023-03-21T15:28:49.929Z,1.40
2023-03-21T15:31:22.024Z,1.58
2023-03-21T15:33:50.276Z,1.35
2023-03-21T15:36:24.892Z,1.30
2023-03-21T15:38:52.071Z,1.13
2023-03-21T15:41:21.668Z,1.55
2023-03-21T15:44:09.145Z,1.58
2023-03-21T15:46:41.764Z,1.35
2023-03-21T15:49:10.334Z,1.73
2023-03-21T15:51:37.058Z,1.30
2023-03-21T15:54:04.055Z,1.35
2023-03-21T15:56:33.871Z,1.60
2023-03-21T15:59:04.308Z,1.33
2023-03-21T16:01:32.953Z,1.40
2023-03-21T16:04:08.290Z,1.23
2023-03-21T16:06:37.177Z,1.40
2023-03-21T16:09:15.541Z,1.70
2023-03-21T16:11:43.905Z,1.25
2023-03-21T16:14:10.644Z,1.30
2023-03-21T16:16:38.264Z,1.40
2023-03-21T16:19:05.017Z,1.40
2023-03-21T16:21:31.861Z,1.38
2023-03-21T16:23:58.599Z,1.63
2023-03-21T16:26:28.459Z,1.50
2023-03-21T16:28:55.218Z,1.60
2023-03-21T16:31:27.572Z,1.40
2023-03-21T16:33:54.176Z,1.20
2023-03-21T16:36:28.306Z,1.42
2023-03-21T16:38:55.524Z,1.60
2023-03-21T16:41:23.706Z,1.70
2023-03-21T16:43:50.773Z,1.40
2023-03-21T16:46:20.384Z,1.40
2023-03-21T16:48:50.087Z,1.50
2023-03-21T16:51:30.993Z,1.58
2023-03-21T16:53:57.959Z,1.40
2023-03-21T16:56:38.410Z,1.35
2023-03-21T16:59:06.016Z,1.40
2023-03-21T17:01:32.720Z,1.25
2023-03-21T17:03:59.244Z,1.55
2023-03-21T17:06:29.010Z,1.20
2023-03-21T17:11:25.164Z,1.20
2023-03-21T17:13:54.079Z,1.40
2023-03-21T17:16:27.012Z,1.35
2023-03-21T17:18:54.999Z,1.35
2023-03-21T17:21:24.238Z,1.52
2023-03-21T17:23:51.890Z,1.50
2023-03-21T17:26:21.805Z,1.60
2023-03-21T17:28:48.567Z,1.30
2023-03-21T17:31:20.341Z,1.40
2023-03-21T17:33:48.040Z,1.48
2023-03-21T17:36:28.443Z,1.50
2023-03-21T17:38:55.168Z,1.50
2023-03-21T17:41:21.703Z,2.00
2023-03-21T17:43:48.510Z,1.40
2023-03-21T17:46:17.963Z,1.45
2023-03-21T17:48:45.471Z,1.95
2023-03-21T17:51:12.496Z,1.95
2023-03-21T17:53:39.098Z,2.13
2023-03-21T17:56:06.064Z,2.00
2023-03-21T17:58:32.671Z,1.55
2023-03-21T18:00:59.350Z,1.58
2023-03-21T18:03:25.888Z,1.92
2023-03-21T18:05:52.399Z,1.90
2023-03-21T18:08:19.079Z,1.73
2023-03-21T18:10:45.761Z,1.70
2023-03-21T18:13:13.081Z,1.83
2023-03-21T18:15:39.772Z,1.83
2023-03-21T18:18:06.461Z,1.85
2023-03-21T18:23:19.922Z,1.83
2023-03-21T18:25:47.012Z,2.08
2023-03-21T18:28:13.958Z,2.15
2023-03-21T18:31:06.922Z,2.05
2023-03-21T18:33:28.509Z,1.80
2023-03-21T18:35:59.343Z,2.35
2023-03-21T18:38:26.933Z,2.42
2023-03-21T18:40:53.667Z,6.03
2023-03-21T18:46:07.860Z,6.78
2023-03-21T18:48:35.654Z,12.32
2023-03-21T18:51:02.614Z,11.75
2023-03-21T18:53:29.174Z,6.45
2023-03-21T18:55:55.784Z,4.30
2023-03-21T18:58:22.435Z,3.38
2023-03-21T19:00:50.711Z,2.63
2023-03-21T19:03:30.165Z,2.67
2023-03-21T19:06:01.626Z,2.38
2023-03-21T19:08:28.150Z,2.22
2023-03-21T19:10:59.393Z,2.55
2023-03-21T19:13:26.366Z,2.28
2023-03-21T19:15:54.170Z,2.60
2023-03-21T19:18:41.633Z,2.50
2023-03-21T19:21:07.893Z,2.67
2023-03-21T19:24:00.831Z,2.97
2023-03-21T19:26:21.867Z,2.65
2023-03-21T19:28:48.387Z,2.90
2023-03-21T19:31:15.098Z,3.70
2023-03-21T19:33:41.649Z,15.55
2023-03-21T19:36:18.076Z,8.60
2023-03-21T19:38:48.456Z,4.47
2023-03-21T19:41:15.114Z,4.32
2023-03-21T19:43:52.908Z,3.20
2023-03-21T19:46:21.364Z,3.15
2023-03-21T19:48:48.859Z,4.07
2023-03-21T19:51:31.349Z,4.03
2023-03-21T19:54:09.916Z,3.05
2023-03-21T19:56:47.431Z,3.40
2023-03-21T19:59:14.644Z,3.42
2023-03-21T20:01:41.637Z,3.92
2023-03-21T20:04:09.036Z,2.67
2023-03-21T20:06:38.116Z,3.08
2023-03-21T20:09:47.201Z,2.90
2023-03-21T20:11:51.859Z,4.47
2023-03-21T20:14:18.924Z,6.55
2023-03-21T20:16:45.492Z,7.30
2023-03-21T20:19:13.002Z,7.82
2023-03-21T20:21:48.486Z,3.60
2023-03-21T20:24:20.247Z,4.30
2023-03-21T20:26:46.898Z,3.25
2023-03-21T20:30:07.577Z,3.45
2023-03-21T20:32:01.391Z,3.22
2023-03-21T20:34:30.544Z,3.83
2023-03-21T20:36:58.272Z,3.17
2023-03-21T20:39:25.054Z,3.25
2023-03-21T20:41:51.588Z,3.55
2023-03-21T20:44:45.186Z,3.97
2023-03-21T20:47:04.998Z,3.58
2023-03-21T20:49:31.748Z,3.88
2023-03-21T20:54:44.851Z,3.40
2023-03-21T20:57:11.376Z,3.92
2023-03-21T20:59:37.968Z,3.53
2023-03-21T21:02:04.892Z,3.65
2023-03-21T21:04:52.948Z,3.33
2023-03-21T21:07:21.934Z,3.53
2023-03-21T21:09:49.310Z,3.20
2023-03-21T21:12:17.027Z,3.80
2023-03-21T21:14:43.719Z,3.40
2023-03-21T21:17:30.679Z,3.70
2023-03-21T21:19:57.337Z,3.70
2023-03-21T21:22:23.863Z,3.88
2023-03-21T21:24:50.472Z,3.22
2023-03-21T21:27:17.110Z,4.07
2023-03-21T21:29:43.737Z,4.38
2023-03-21T21:32:10.443Z,3.30
2023-03-21T21:34:37.054Z,4.05
2023-03-21T21:37:03.687Z,4.00
2023-03-21T21:39:30.401Z,4.00
2023-03-21T21:41:57.247Z,4.07
2023-03-21T21:44:23.741Z,4.47
2023-03-21T21:46:50.318Z,3.95
2023-03-21T21:49:18.026Z,3.95
2023-03-21T21:51:45.673Z,4.70
2023-03-21T21:54:13.243Z,4.07
2023-03-21T21:56:39.844Z,4.78
2023-03-21T21:59:06.373Z,4.45
2023-03-21T22:01:33.168Z,4.07
2023-03-21T22:04:00.078Z,3.67
2023-03-21T22:06:29.819Z,4.07
2023-03-21T22:08:56.420Z,4.20
2023-03-21T22:11:23.153Z,4.53
2023-03-21T22:13:49.776Z,4.32
2023-03-21T22:16:16.576Z,4.07
2023-03-21T22:18:43.141Z,4.32
2023-03-21T22:21:09.948Z,4.60
2023-03-21T22:23:36.601Z,4.90
2023-03-21T22:26:03.532Z,4.20
2023-03-21T22:28:31.016Z,4.40
2023-03-21T22:30:57.602Z,3.88
2023-03-21T22:33:24.163Z,4.15
2023-03-21T22:35:52.209Z,4.57
2023-03-21T22:38:19.632Z,4.20
2023-03-21T22:40:46.220Z,3.80
2023-03-21T22:43:12.815Z,3.72
2023-03-21T22:45:40.757Z,4.93
2023-03-21T22:48:07.389Z,4.28
2023-03-21T22:50:33.941Z,4.00
2023-03-21T22:53:00.647Z,3.55
2023-03-21T22:55:27.257Z,4.18
2023-03-21T22:57:53.851Z,3.47
2023-03-21T23:00:20.591Z,4.10
2023-03-21T23:02:47.116Z,4.28
2023-03-21T23:05:13.709Z,4.57
2023-03-21T23:07:40.265Z,4.90
2023-03-21T23:10:07.972Z,3.38
2023-03-21T23:12:34.830Z,3.90
2023-03-21T23:15:02.390Z,4.18
2023-03-21T23:17:29.200Z,4.22
2023-03-21T23:19:55.729Z,4.53
2023-03-21T23:22:22.323Z,3.17
2023-03-21T23:24:48.880Z,4.45
2023-03-21T23:27:15.409Z,4.25
2023-03-21T23:29:42.127Z,3.22
2023-03-21T23:32:08.659Z,4.60
2023-03-21T23:34:35.163Z,3.75
2023-03-21T23:37:01.651Z,4.38
2023-03-21T23:39:28.187Z,4.22
2023-03-21T23:41:54.756Z,3.75
2023-03-21T23:44:21.346Z,4.53
2023-03-21T23:46:47.856Z,5.07
2023-03-21T23:49:14.436Z,4.47
2023-03-21T23:51:41.035Z,4.10
2023-03-21T23:54:07.619Z,4.65
2023-03-21T23:56:34.154Z,4.47
2023-03-21T23:59:00.746Z,4.25
